sensor_id;sensor_type;location;lat;lon;timestamp;P1;durP1;ratioP1;P2;durP2;ratioP2
25503;SDS011;13410;52.114;5.718;2024-03-07T00:00:17;56.78;;;29.27;;
25503;SDS011;13410;52.114;5.718;2024-03-07T00:02:43;56.13;;;29.92;;
25503;SDS011;13410;52.114;5.718;2024-03-07T00:05:10;56.72;;;30.30;;
25503;SDS011;13410;52.114;5.718;2024-03-07T00:07:37;54.13;;;29.92;;
25503;SDS011;13410;52.114;5.718;2024-03-07T00:10:03;54.55;;;29.08;;
25503;SDS011;13410;52.114;5.718;2024-03-07T00:12:32;58.65;;;30.33;;
25503;SDS011;13410;52.114;5.718;2024-03-07T00:15:01;59.88;;;29.27;;
25503;SDS011;13410;52.114;5.718;2024-03-07T00:17:28;55.13;;;28.85;;
25503;SDS011;13410;52.114;5.718;2024-03-07T00:19:54;56.85;;;29.02;;
25503;SDS011;13410;52.114;5.718;2024-03-07T00:22:19;59.67;;;30.13;;
25503;SDS011;13410;52.114;5.718;2024-03-07T00:24:45;56.58;;;29.23;;
25503;SDS011;13410;52.114;5.718;2024-03-07T00:27:12;57.15;;;29.50;;
25503;SDS011;13410;52.114;5.718;2024-03-07T00:29:39;58.42;;;29.25;;
25503;SDS011;13410;52.114;5.718;2024-03-07T00:32:05;61.03;;;31.38;;
25503;SDS011;13410;52.114;5.718;2024-03-07T00:34:33;65.75;;;32.80;;
25503;SDS011;13410;52.114;5.718;2024-03-07T00:36:59;61.42;;;31.00;;
25503;SDS011;13410;52.114;5.718;2024-03-07T00:39:28;66.50;;;32.75;;
25503;SDS011;13410;52.114;5.718;2024-03-07T00:41:53;65.13;;;32.55;;
25503;SDS011;13410;52.114;5.718;2024-03-07T00:44:19;65.00;;;32.95;;
25503;SDS011;13410;52.114;5.718;2024-03-07T00:46:44;68.80;;;32.63;;
25503;SDS011;13410;52.114;5.718;2024-03-07T00:49:10;63.58;;;31.67;;
25503;SDS011;13410;52.114;5.718;2024-03-07T00:51:36;59.70;;;30.00;;
25503;SDS011;13410;52.114;5.718;2024-03-07T00:54:02;57.60;;;29.15;;
25503;SDS011;13410;52.114;5.718;2024-03-07T00:56:28;54.05;;;27.85;;
25503;SDS011;13410;52.114;5.718;2024-03-07T00:58:56;55.88;;;27.42;;
25503;SDS011;13410;52.114;5.718;2024-03-07T01:01:21;53.90;;;27.15;;
25503;SDS011;13410;52.114;5.718;2024-03-07T01:03:47;53.58;;;27.38;;
25503;SDS011;13410;52.114;5.718;2024-03-07T01:06:13;54.10;;;26.08;;
25503;SDS011;13410;52.114;5.718;2024-03-07T01:08:39;52.15;;;26.88;;
25503;SDS011;13410;52.114;5.718;2024-03-07T01:11:04;53.55;;;27.58;;
25503;SDS011;13410;52.114;5.718;2024-03-07T01:13:37;54.28;;;27.90;;
25503;SDS011;13410;52.114;5.718;2024-03-07T01:16:05;55.88;;;28.95;;
25503;SDS011;13410;52.114;5.718;2024-03-07T01:18:31;56.90;;;28.58;;
25503;SDS011;13410;52.114;5.718;2024-03-07T01:21:00;52.97;;;28.58;;
25503;SDS011;13410;52.114;5.718;2024-03-07T01:23:26;54.30;;;28.42;;
25503;SDS011;13410;52.114;5.718;2024-03-07T01:25:54;56.25;;;28.00;;
25503;SDS011;13410;52.114;5.718;2024-03-07T01:28:21;54.92;;;28.13;;
25503;SDS011;13410;52.114;5.718;2024-03-07T01:30:47;55.25;;;27.98;;
25503;SDS011;13410;52.114;5.718;2024-03-07T01:33:13;52.50;;;27.95;;
25503;SDS011;13410;52.114;5.718;2024-03-07T01:35:40;53.50;;;27.48;;
25503;SDS011;13410;52.114;5.718;2024-03-07T01:38:05;53.58;;;26.95;;
25503;SDS011;13410;52.114;5.718;2024-03-07T01:40:33;55.22;;;28.13;;
25503;SDS011;13410;52.114;5.718;2024-03-07T01:43:00;55.03;;;28.40;;
25503;SDS011;13410;52.114;5.718;2024-03-07T01:45:27;55.03;;;27.27;;
25503;SDS011;13410;52.114;5.718;2024-03-07T01:47:52;51.22;;;27.42;;
25503;SDS011;13410;52.114;5.718;2024-03-07T01:50:18;49.00;;;26.00;;
25503;SDS011;13410;52.114;5.718;2024-03-07T01:52:44;50.55;;;26.42;;
25503;SDS011;13410;52.114;5.718;2024-03-07T01:55:10;51.15;;;27.10;;
25503;SDS011;13410;52.114;5.718;2024-03-07T01:57:38;51.28;;;26.45;;
25503;SDS011;13410;52.114;5.718;2024-03-07T02:00:04;56.92;;;29.65;;
25503;SDS011;13410;52.114;5.718;2024-03-07T02:02:32;58.22;;;29.83;;
25503;SDS011;13410;52.114;5.718;2024-03-07T02:04:58;60.22;;;29.75;;
25503;SDS011;13410;52.114;5.718;2024-03-07T02:07:24;57.72;;;29.08;;
25503;SDS011;13410;52.114;5.718;2024-03-07T02:09:58;61.85;;;30.63;;
25503;SDS011;13410;52.114;5.718;2024-03-07T02:12:28;55.10;;;28.65;;
25503;SDS011;13410;52.114;5.718;2024-03-07T02:14:58;59.75;;;29.52;;
25503;SDS011;13410;52.114;5.718;2024-03-07T02:17:24;59.47;;;29.48;;
25503;SDS011;13410;52.114;5.718;2024-03-07T02:19:53;59.17;;;28.83;;
25503;SDS011;13410;52.114;5.718;2024-03-07T02:22:18;55.95;;;28.92;;
25503;SDS011;13410;52.114;5.718;2024-03-07T02:24:44;64.13;;;31.50;;
25503;SDS011;13410;52.114;5.718;2024-03-07T02:27:11;68.75;;;33.33;;
25503;SDS011;13410;52.114;5.718;2024-03-07T02:29:39;69.70;;;33.20;;
25503;SDS011;13410;52.114;5.718;2024-03-07T02:32:07;66.75;;;33.10;;
25503;SDS011;13410;52.114;5.718;2024-03-07T02:34:33;77.30;;;35.22;;
25503;SDS011;13410;52.114;5.718;2024-03-07T02:36:59;77.97;;;33.78;;
25503;SDS011;13410;52.114;5.718;2024-03-07T02:39:25;83.03;;;36.83;;
25503;SDS011;13410;52.114;5.718;2024-03-07T02:41:50;76.40;;;35.90;;
25503;SDS011;13410;52.114;5.718;2024-03-07T02:44:16;80.63;;;36.15;;
25503;SDS011;13410;52.114;5.718;2024-03-07T02:46:42;77.45;;;35.20;;
25503;SDS011;13410;52.114;5.718;2024-03-07T02:49:08;76.35;;;35.83;;
25503;SDS011;13410;52.114;5.718;2024-03-07T02:51:34;69.97;;;32.60;;
25503;SDS011;13410;52.114;5.718;2024-03-07T02:54:00;66.78;;;31.50;;
25503;SDS011;13410;52.114;5.718;2024-03-07T02:56:26;63.35;;;31.77;;
25503;SDS011;13410;52.114;5.718;2024-03-07T02:58:51;66.60;;;30.70;;
25503;SDS011;13410;52.114;5.718;2024-03-07T03:01:17;68.75;;;32.70;;
25503;SDS011;13410;52.114;5.718;2024-03-07T03:03:43;64.25;;;30.50;;
25503;SDS011;13410;52.114;5.718;2024-03-07T03:06:09;61.70;;;30.75;;
25503;SDS011;13410;52.114;5.718;2024-03-07T03:08:35;60.92;;;30.27;;
25503;SDS011;13410;52.114;5.718;2024-03-07T03:11:02;56.88;;;29.55;;
25503;SDS011;13410;52.114;5.718;2024-03-07T03:13:28;59.17;;;30.27;;
25503;SDS011;13410;52.114;5.718;2024-03-07T03:15:54;55.58;;;29.75;;
25503;SDS011;13410;52.114;5.718;2024-03-07T03:18:23;55.25;;;29.52;;
25503;SDS011;13410;52.114;5.718;2024-03-07T03:20:49;57.38;;;30.08;;
25503;SDS011;13410;52.114;5.718;2024-03-07T03:23:15;71.85;;;32.95;;
25503;SDS011;13410;52.114;5.718;2024-03-07T03:25:41;65.97;;;32.72;;
25503;SDS011;13410;52.114;5.718;2024-03-07T03:28:07;70.53;;;33.28;;
25503;SDS011;13410;52.114;5.718;2024-03-07T03:30:37;64.53;;;31.80;;
25503;SDS011;13410;52.114;5.718;2024-03-07T03:33:03;82.30;;;36.17;;
25503;SDS011;13410;52.114;5.718;2024-03-07T03:35:30;76.10;;;35.63;;
25503;SDS011;13410;52.114;5.718;2024-03-07T03:37:56;78.78;;;38.08;;
25503;SDS011;13410;52.114;5.718;2024-03-07T03:40:22;85.70;;;38.63;;
25503;SDS011;13410;52.114;5.718;2024-03-07T03:42:48;80.68;;;37.63;;
25503;SDS011;13410;52.114;5.718;2024-03-07T03:45:14;85.28;;;37.58;;
25503;SDS011;13410;52.114;5.718;2024-03-07T03:47:40;89.55;;;39.75;;
25503;SDS011;13410;52.114;5.718;2024-03-07T03:50:08;91.78;;;40.40;;
25503;SDS011;13410;52.114;5.718;2024-03-07T03:52:36;84.97;;;39.17;;
25503;SDS011;13410;52.114;5.718;2024-03-07T03:55:02;83.15;;;38.25;;
25503;SDS011;13410;52.114;5.718;2024-03-07T03:57:32;96.68;;;39.67;;
25503;SDS011;13410;52.114;5.718;2024-03-07T03:59:58;86.88;;;39.67;;
25503;SDS011;13410;52.114;5.718;2024-03-07T04:02:24;89.65;;;40.85;;
25503;SDS011;13410;52.114;5.718;2024-03-07T04:04:53;92.90;;;40.08;;
25503;SDS011;13410;52.114;5.718;2024-03-07T04:07:19;91.85;;;40.17;;
25503;SDS011;13410;52.114;5.718;2024-03-07T04:09:45;86.50;;;38.40;;
25503;SDS011;13410;52.114;5.718;2024-03-07T04:12:11;83.40;;;40.30;;
25503;SDS011;13410;52.114;5.718;2024-03-07T04:14:41;88.63;;;39.45;;
25503;SDS011;13410;52.114;5.718;2024-03-07T04:17:07;85.68;;;39.55;;
25503;SDS011;13410;52.114;5.718;2024-03-07T04:19:37;84.85;;;39.28;;
25503;SDS011;13410;52.114;5.718;2024-03-07T04:22:04;84.05;;;39.53;;
25503;SDS011;13410;52.114;5.718;2024-03-07T04:24:30;87.78;;;39.47;;
25503;SDS011;13410;52.114;5.718;2024-03-07T04:26:58;92.80;;;40.40;;
25503;SDS011;13410;52.114;5.718;2024-03-07T04:29:25;93.25;;;40.25;;
25503;SDS011;13410;52.114;5.718;2024-03-07T04:31:51;88.10;;;39.17;;
25503;SDS011;13410;52.114;5.718;2024-03-07T04:34:17;90.47;;;41.85;;
25503;SDS011;13410;52.114;5.718;2024-03-07T04:36:44;89.85;;;41.30;;
25503;SDS011;13410;52.114;5.718;2024-03-07T04:39:11;86.75;;;39.70;;
25503;SDS011;13410;52.114;5.718;2024-03-07T04:41:51;94.45;;;40.03;;
25503;SDS011;13410;52.114;5.718;2024-03-07T04:44:20;90.55;;;39.30;;
25503;SDS011;13410;52.114;5.718;2024-03-07T04:46:48;89.03;;;41.55;;
25503;SDS011;13410;52.114;5.718;2024-03-07T04:49:15;87.70;;;40.45;;
25503;SDS011;13410;52.114;5.718;2024-03-07T04:51:41;92.60;;;41.38;;
25503;SDS011;13410;52.114;5.718;2024-03-07T04:54:06;92.65;;;41.53;;
25503;SDS011;13410;52.114;5.718;2024-03-07T04:56:32;91.93;;;40.17;;
25503;SDS011;13410;52.114;5.718;2024-03-07T04:58:57;93.65;;;40.05;;
25503;SDS011;13410;52.114;5.718;2024-03-07T05:01:23;96.70;;;41.00;;
25503;SDS011;13410;52.114;5.718;2024-03-07T05:03:50;90.00;;;39.90;;
25503;SDS011;13410;52.114;5.718;2024-03-07T05:06:17;95.07;;;40.13;;
25503;SDS011;13410;52.114;5.718;2024-03-07T05:08:42;93.85;;;41.25;;
25503;SDS011;13410;52.114;5.718;2024-03-07T05:11:08;93.35;;;41.90;;
25503;SDS011;13410;52.114;5.718;2024-03-07T05:13:33;89.65;;;40.28;;
25503;SDS011;13410;52.114;5.718;2024-03-07T05:16:00;87.72;;;40.33;;
25503;SDS011;13410;52.114;5.718;2024-03-07T05:18:26;98.72;;;41.55;;
25503;SDS011;13410;52.114;5.718;2024-03-07T05:20:51;87.40;;;40.35;;
25503;SDS011;13410;52.114;5.718;2024-03-07T05:23:19;93.18;;;41.33;;
25503;SDS011;13410;52.114;5.718;2024-03-07T05:25:46;91.22;;;40.83;;
25503;SDS011;13410;52.114;5.718;2024-03-07T05:28:14;92.63;;;41.20;;
25503;SDS011;13410;52.114;5.718;2024-03-07T05:30:40;85.57;;;39.95;;
25503;SDS011;13410;52.114;5.718;2024-03-07T05:33:05;87.95;;;40.85;;
25503;SDS011;13410;52.114;5.718;2024-03-07T05:35:33;93.03;;;41.20;;
25503;SDS011;13410;52.114;5.718;2024-03-07T05:37:58;85.15;;;39.42;;
25503;SDS011;13410;52.114;5.718;2024-03-07T05:40:25;93.97;;;40.83;;
25503;SDS011;13410;52.114;5.718;2024-03-07T05:42:52;88.88;;;39.47;;
25503;SDS011;13410;52.114;5.718;2024-03-07T05:45:19;87.05;;;40.35;;
25503;SDS011;13410;52.114;5.718;2024-03-07T05:47:44;93.63;;;41.13;;
25503;SDS011;13410;52.114;5.718;2024-03-07T05:50:12;84.60;;;38.90;;
25503;SDS011;13410;52.114;5.718;2024-03-07T05:52:38;89.20;;;40.25;;
25503;SDS011;13410;52.114;5.718;2024-03-07T05:55:04;80.63;;;39.20;;
25503;SDS011;13410;52.114;5.718;2024-03-07T05:57:31;86.65;;;39.97;;
25503;SDS011;13410;52.114;5.718;2024-03-07T05:59:57;84.68;;;39.13;;
25503;SDS011;13410;52.114;5.718;2024-03-07T06:02:22;89.80;;;40.00;;
25503;SDS011;13410;52.114;5.718;2024-03-07T06:04:49;85.15;;;40.35;;
25503;SDS011;13410;52.114;5.718;2024-03-07T06:07:15;88.53;;;39.38;;
25503;SDS011;13410;52.114;5.718;2024-03-07T06:09:40;83.45;;;39.35;;
25503;SDS011;13410;52.114;5.718;2024-03-07T06:12:06;86.45;;;38.53;;
25503;SDS011;13410;52.114;5.718;2024-03-07T06:14:33;85.70;;;39.38;;
25503;SDS011;13410;52.114;5.718;2024-03-07T06:16:59;81.30;;;39.20;;
25503;SDS011;13410;52.114;5.718;2024-03-07T06:19:26;86.20;;;38.00;;
25503;SDS011;13410;52.114;5.718;2024-03-07T06:21:51;85.65;;;40.20;;
25503;SDS011;13410;52.114;5.718;2024-03-07T06:24:20;84.38;;;40.00;;
25503;SDS011;13410;52.114;5.718;2024-03-07T06:26:48;93.82;;;40.38;;
25503;SDS011;13410;52.114;5.718;2024-03-07T06:29:24;87.15;;;40.15;;
25503;SDS011;13410;52.114;5.718;2024-03-07T06:31:52;83.32;;;39.75;;
25503;SDS011;13410;52.114;5.718;2024-03-07T06:34:19;88.30;;;41.45;;
25503;SDS011;13410;52.114;5.718;2024-03-07T06:36:45;90.22;;;41.30;;
25503;SDS011;13410;52.114;5.718;2024-03-07T06:39:10;83.15;;;40.92;;
25503;SDS011;13410;52.114;5.718;2024-03-07T06:41:37;87.80;;;39.88;;
25503;SDS011;13410;52.114;5.718;2024-03-07T06:44:03;85.38;;;39.42;;
25503;SDS011;13410;52.114;5.718;2024-03-07T06:46:29;79.03;;;38.58;;
25503;SDS011;13410;52.114;5.718;2024-03-07T06:48:54;84.43;;;39.25;;
25503;SDS011;13410;52.114;5.718;2024-03-07T06:51:23;79.32;;;39.00;;
25503;SDS011;13410;52.114;5.718;2024-03-07T06:53:49;82.90;;;40.03;;
25503;SDS011;13410;52.114;5.718;2024-03-07T06:56:15;83.50;;;38.75;;
25503;SDS011;13410;52.114;5.718;2024-03-07T06:58:41;79.15;;;38.38;;
25503;SDS011;13410;52.114;5.718;2024-03-07T07:01:08;76.32;;;38.17;;
25503;SDS011;13410;52.114;5.718;2024-03-07T07:03:37;75.28;;;37.50;;
25503;SDS011;13410;52.114;5.718;2024-03-07T07:06:04;77.82;;;37.92;;
25503;SDS011;13410;52.114;5.718;2024-03-07T07:08:32;75.18;;;37.30;;
25503;SDS011;13410;52.114;5.718;2024-03-07T07:10:58;73.97;;;37.03;;
25503;SDS011;13410;52.114;5.718;2024-03-07T07:13:24;72.40;;;36.47;;
25503;SDS011;13410;52.114;5.718;2024-03-07T07:15:49;74.78;;;36.38;;
25503;SDS011;13410;52.114;5.718;2024-03-07T07:18:15;70.07;;;35.25;;
25503;SDS011;13410;52.114;5.718;2024-03-07T07:20:41;62.42;;;33.58;;
25503;SDS011;13410;52.114;5.718;2024-03-07T07:23:07;62.33;;;33.42;;
25503;SDS011;13410;52.114;5.718;2024-03-07T07:25:32;66.22;;;34.30;;
25503;SDS011;13410;52.114;5.718;2024-03-07T07:27:58;63.13;;;33.85;;
25503;SDS011;13410;52.114;5.718;2024-03-07T07:30:25;61.70;;;32.65;;
25503;SDS011;13410;52.114;5.718;2024-03-07T07:32:52;60.20;;;31.92;;
25503;SDS011;13410;52.114;5.718;2024-03-07T07:35:18;58.33;;;30.90;;
25503;SDS011;13410;52.114;5.718;2024-03-07T07:37:46;57.03;;;31.80;;
25503;SDS011;13410;52.114;5.718;2024-03-07T07:40:14;58.50;;;31.58;;
25503;SDS011;13410;52.114;5.718;2024-03-07T07:42:46;63.97;;;32.67;;
25503;SDS011;13410;52.114;5.718;2024-03-07T07:45:12;57.63;;;30.95;;
25503;SDS011;13410;52.114;5.718;2024-03-07T07:47:45;58.97;;;31.52;;
25503;SDS011;13410;52.114;5.718;2024-03-07T07:50:14;56.85;;;31.35;;
25503;SDS011;13410;52.114;5.718;2024-03-07T07:52:56;57.88;;;31.48;;
25503;SDS011;13410;52.114;5.718;2024-03-07T07:55:26;56.80;;;28.67;;
25503;SDS011;13410;52.114;5.718;2024-03-07T07:57:54;63.80;;;31.23;;
25503;SDS011;13410;52.114;5.718;2024-03-07T08:00:22;58.75;;;31.25;;
25503;SDS011;13410;52.114;5.718;2024-03-07T08:02:52;55.92;;;29.83;;
25503;SDS011;13410;52.114;5.718;2024-03-07T08:05:20;51.47;;;28.60;;
25503;SDS011;13410;52.114;5.718;2024-03-07T08:07:48;53.72;;;28.40;;
25503;SDS011;13410;52.114;5.718;2024-03-07T08:10:15;48.47;;;27.63;;
25503;SDS011;13410;52.114;5.718;2024-03-07T08:12:40;50.60;;;27.48;;
25503;SDS011;13410;52.114;5.718;2024-03-07T08:15:11;45.13;;;26.65;;
25503;SDS011;13410;52.114;5.718;2024-03-07T08:17:40;44.40;;;25.60;;
25503;SDS011;13410;52.114;5.718;2024-03-07T08:20:13;48.65;;;27.35;;
25503;SDS011;13410;52.114;5.718;2024-03-07T08:22:43;43.92;;;26.15;;
25503;SDS011;13410;52.114;5.718;2024-03-07T08:25:13;37.78;;;21.75;;
25503;SDS011;13410;52.114;5.718;2024-03-07T08:27:40;45.90;;;25.42;;
25503;SDS011;13410;52.114;5.718;2024-03-07T08:30:08;44.40;;;24.77;;
25503;SDS011;13410;52.114;5.718;2024-03-07T08:32:38;42.97;;;25.25;;
25503;SDS011;13410;52.114;5.718;2024-03-07T08:35:08;42.08;;;24.92;;
25503;SDS011;13410;52.114;5.718;2024-03-07T08:37:38;42.40;;;24.40;;
25503;SDS011;13410;52.114;5.718;2024-03-07T08:40:05;37.60;;;22.97;;
25503;SDS011;13410;52.114;5.718;2024-03-07T08:42:33;35.38;;;21.75;;
25503;SDS011;13410;52.114;5.718;2024-03-07T08:45:01;37.97;;;22.88;;
25503;SDS011;13410;52.114;5.718;2024-03-07T08:47:31;37.90;;;21.38;;
25503;SDS011;13410;52.114;5.718;2024-03-07T08:49:58;35.25;;;20.83;;
25503;SDS011;13410;52.114;5.718;2024-03-07T08:52:24;36.50;;;20.90;;
25503;SDS011;13410;52.114;5.718;2024-03-07T08:54:49;30.67;;;17.63;;
25503;SDS011;13410;52.114;5.718;2024-03-07T08:57:15;31.88;;;18.50;;
25503;SDS011;13410;52.114;5.718;2024-03-07T08:59:43;29.13;;;17.50;;
25503;SDS011;13410;52.114;5.718;2024-03-07T09:02:09;27.65;;;18.08;;
25503;SDS011;13410;52.114;5.718;2024-03-07T09:04:36;26.92;;;17.02;;
25503;SDS011;13410;52.114;5.718;2024-03-07T09:07:04;28.30;;;18.55;;
25503;SDS011;13410;52.114;5.718;2024-03-07T09:09:31;27.00;;;17.25;;
25503;SDS011;13410;52.114;5.718;2024-03-07T09:12:01;31.33;;;17.35;;
25503;SDS011;13410;52.114;5.718;2024-03-07T09:14:27;27.02;;;16.58;;
25503;SDS011;13410;52.114;5.718;2024-03-07T09:16:53;30.92;;;17.02;;
25503;SDS011;13410;52.114;5.718;2024-03-07T09:19:20;34.72;;;16.85;;
25503;SDS011;13410;52.114;5.718;2024-03-07T09:21:50;28.58;;;15.88;;
25503;SDS011;13410;52.114;5.718;2024-03-07T09:24:16;26.73;;;15.15;;
25503;SDS011;13410;52.114;5.718;2024-03-07T09:26:41;26.90;;;15.68;;
25503;SDS011;13410;52.114;5.718;2024-03-07T09:29:07;24.85;;;14.82;;
25503;SDS011;13410;52.114;5.718;2024-03-07T09:31:33;29.02;;;16.05;;
25503;SDS011;13410;52.114;5.718;2024-03-07T09:33:58;26.58;;;16.00;;
25503;SDS011;13410;52.114;5.718;2024-03-07T09:36:24;28.33;;;14.70;;
25503;SDS011;13410;52.114;5.718;2024-03-07T09:38:50;23.30;;;14.05;;
25503;SDS011;13410;52.114;5.718;2024-03-07T09:41:16;26.80;;;15.95;;
25503;SDS011;13410;52.114;5.718;2024-03-07T09:43:43;27.63;;;15.75;;
25503;SDS011;13410;52.114;5.718;2024-03-07T09:46:11;28.10;;;16.20;;
25503;SDS011;13410;52.114;5.718;2024-03-07T09:48:37;27.23;;;16.35;;
25503;SDS011;13410;52.114;5.718;2024-03-07T09:51:04;24.92;;;14.80;;
25503;SDS011;13410;52.114;5.718;2024-03-07T09:53:32;26.67;;;15.57;;
25503;SDS011;13410;52.114;5.718;2024-03-07T09:56:00;27.23;;;14.50;;
25503;SDS011;13410;52.114;5.718;2024-03-07T09:58:26;30.05;;;18.30;;
25503;SDS011;13410;52.114;5.718;2024-03-07T10:00:56;28.20;;;16.08;;
25503;SDS011;13410;52.114;5.718;2024-03-07T10:03:22;25.70;;;14.52;;
25503;SDS011;13410;52.114;5.718;2024-03-07T10:05:53;28.35;;;15.68;;
25503;SDS011;13410;52.114;5.718;2024-03-07T10:08:19;27.23;;;16.25;;
25503;SDS011;13410;52.114;5.718;2024-03-07T10:10:47;26.05;;;14.52;;
25503;SDS011;13410;52.114;5.718;2024-03-07T10:13:14;25.23;;;15.00;;
25503;SDS011;13410;52.114;5.718;2024-03-07T10:15:41;27.23;;;15.90;;
25503;SDS011;13410;52.114;5.718;2024-03-07T10:18:08;27.88;;;16.30;;
25503;SDS011;13410;52.114;5.718;2024-03-07T10:20:38;26.67;;;17.65;;
25503;SDS011;13410;52.114;5.718;2024-03-07T10:23:04;26.10;;;15.20;;
25503;SDS011;13410;52.114;5.718;2024-03-07T10:25:32;24.73;;;14.80;;
25503;SDS011;13410;52.114;5.718;2024-03-07T10:27:58;26.90;;;14.68;;
25503;SDS011;13410;52.114;5.718;2024-03-07T10:30:25;26.08;;;15.63;;
25503;SDS011;13410;52.114;5.718;2024-03-07T10:32:56;27.80;;;14.80;;
25503;SDS011;13410;52.114;5.718;2024-03-07T10:35:24;25.38;;;14.32;;
25503;SDS011;13410;52.114;5.718;2024-03-07T10:37:53;24.02;;;14.15;;
25503;SDS011;13410;52.114;5.718;2024-03-07T10:40:19;26.52;;;13.05;;
25503;SDS011;13410;52.114;5.718;2024-03-07T10:42:47;24.58;;;14.48;;
25503;SDS011;13410;52.114;5.718;2024-03-07T10:45:19;26.67;;;15.52;;
25503;SDS011;13410;52.114;5.718;2024-03-07T10:47:55;25.60;;;14.32;;
25503;SDS011;13410;52.114;5.718;2024-03-07T10:59:11;26.52;;;15.45;;
25503;SDS011;13410;52.114;5.718;2024-03-07T11:01:24;24.58;;;15.63;;
25503;SDS011;13410;52.114;5.718;2024-03-07T11:03:51;26.02;;;15.13;;
25503;SDS011;13410;52.114;5.718;2024-03-07T11:06:17;24.40;;;15.60;;
25503;SDS011;13410;52.114;5.718;2024-03-07T11:08:44;25.52;;;15.70;;
25503;SDS011;13410;52.114;5.718;2024-03-07T11:11:12;26.13;;;16.42;;
25503;SDS011;13410;52.114;5.718;2024-03-07T11:13:38;26.58;;;15.13;;
25503;SDS011;13410;52.114;5.718;2024-03-07T11:16:05;28.73;;;17.48;;
25503;SDS011;13410;52.114;5.718;2024-03-07T11:18:32;24.48;;;15.48;;
25503;SDS011;13410;52.114;5.718;2024-03-07T11:20:58;26.40;;;16.52;;
25503;SDS011;13410;52.114;5.718;2024-03-07T11:23:24;26.70;;;16.05;;
25503;SDS011;13410;52.114;5.718;2024-03-07T11:26:10;30.45;;;14.82;;
25503;SDS011;13410;52.114;5.718;2024-03-07T11:28:40;30.65;;;15.13;;
25503;SDS011;13410;52.114;5.718;2024-03-07T11:31:12;23.80;;;14.50;;
25503;SDS011;13410;52.114;5.718;2024-03-07T11:33:39;23.40;;;14.35;;
25503;SDS011;13410;52.114;5.718;2024-03-07T11:36:11;23.98;;;14.20;;
25503;SDS011;13410;52.114;5.718;2024-03-07T11:38:37;25.63;;;14.48;;
25503;SDS011;13410;52.114;5.718;2024-03-07T11:41:09;24.38;;;13.43;;
25503;SDS011;13410;52.114;5.718;2024-03-07T11:43:38;22.92;;;13.95;;
25503;SDS011;13410;52.114;5.718;2024-03-07T11:46:05;30.73;;;14.93;;
25503;SDS011;13410;52.114;5.718;2024-03-07T11:48:38;24.38;;;14.45;;
25503;SDS011;13410;52.114;5.718;2024-03-07T11:51:06;24.52;;;14.73;;
25503;SDS011;13410;52.114;5.718;2024-03-07T11:53:35;22.45;;;13.52;;
25503;SDS011;13410;52.114;5.718;2024-03-07T11:56:03;23.40;;;13.70;;
25503;SDS011;13410;52.114;5.718;2024-03-07T11:58:37;24.35;;;13.65;;
25503;SDS011;13410;52.114;5.718;2024-03-07T12:03:35;27.02;;;14.40;;
25503;SDS011;13410;52.114;5.718;2024-03-07T12:06:02;24.85;;;14.27;;
25503;SDS011;13410;52.114;5.718;2024-03-07T12:08:28;22.50;;;13.77;;
25503;SDS011;13410;52.114;5.718;2024-03-07T12:10:54;28.63;;;15.77;;
25503;SDS011;13410;52.114;5.718;2024-03-07T12:13:22;26.00;;;13.90;;
25503;SDS011;13410;52.114;5.718;2024-03-07T12:15:49;23.75;;;15.15;;
25503;SDS011;13410;52.114;5.718;2024-03-07T12:18:17;26.67;;;14.40;;
25503;SDS011;13410;52.114;5.718;2024-03-07T12:20:45;28.95;;;14.30;;
25503;SDS011;13410;52.114;5.718;2024-03-07T12:23:19;23.90;;;13.85;;
25503;SDS011;13410;52.114;5.718;2024-03-07T12:25:47;26.95;;;14.82;;
25503;SDS011;13410;52.114;5.718;2024-03-07T12:28:23;23.58;;;12.88;;
25503;SDS011;13410;52.114;5.718;2024-03-07T12:30:50;23.75;;;14.25;;
25503;SDS011;13410;52.114;5.718;2024-03-07T12:33:19;23.80;;;12.98;;
25503;SDS011;13410;52.114;5.718;2024-03-07T12:35:46;32.30;;;18.80;;
25503;SDS011;13410;52.114;5.718;2024-03-07T12:38:14;29.10;;;17.52;;
25503;SDS011;13410;52.114;5.718;2024-03-07T12:40:44;29.60;;;17.75;;
25503;SDS011;13410;52.114;5.718;2024-03-07T12:43:17;29.55;;;16.90;;
25503;SDS011;13410;52.114;5.718;2024-03-07T12:45:53;25.65;;;17.05;;
25503;SDS011;13410;52.114;5.718;2024-03-07T12:48:21;26.35;;;15.80;;
25503;SDS011;13410;52.114;5.718;2024-03-07T12:50:46;29.92;;;15.88;;
25503;SDS011;13410;52.114;5.718;2024-03-07T12:53:19;23.98;;;13.95;;
25503;SDS011;13410;52.114;5.718;2024-03-07T12:55:49;25.40;;;15.07;;
25503;SDS011;13410;52.114;5.718;2024-03-07T12:58:17;23.70;;;13.95;;
25503;SDS011;13410;52.114;5.718;2024-03-07T13:00:44;23.77;;;14.93;;
25503;SDS011;13410;52.114;5.718;2024-03-07T13:03:10;25.23;;;14.65;;
25503;SDS011;13410;52.114;5.718;2024-03-07T13:05:36;22.30;;;13.95;;
25503;SDS011;13410;52.114;5.718;2024-03-07T13:08:05;29.10;;;14.88;;
25503;SDS011;13410;52.114;5.718;2024-03-07T13:10:34;27.73;;;15.15;;
25503;SDS011;13410;52.114;5.718;2024-03-07T13:12:59;21.00;;;14.15;;
25503;SDS011;13410;52.114;5.718;2024-03-07T13:15:27;24.50;;;15.40;;
25503;SDS011;13410;52.114;5.718;2024-03-07T13:17:53;27.65;;;15.75;;
25503;SDS011;13410;52.114;5.718;2024-03-07T13:20:20;29.48;;;18.98;;
25503;SDS011;13410;52.114;5.718;2024-03-07T13:25:19;27.80;;;17.73;;
25503;SDS011;13410;52.114;5.718;2024-03-07T13:27:57;27.60;;;18.35;;
25503;SDS011;13410;52.114;5.718;2024-03-07T13:30:26;26.48;;;16.77;;
25503;SDS011;13410;52.114;5.718;2024-03-07T13:32:53;24.63;;;16.15;;
25503;SDS011;13410;52.114;5.718;2024-03-07T13:35:20;21.13;;;14.27;;
25503;SDS011;13410;52.114;5.718;2024-03-07T13:37:46;23.63;;;14.20;;
25503;SDS011;13410;52.114;5.718;2024-03-07T13:40:14;24.85;;;14.82;;
25503;SDS011;13410;52.114;5.718;2024-03-07T13:42:55;23.83;;;14.13;;
25503;SDS011;13410;52.114;5.718;2024-03-07T13:45:32;22.20;;;13.40;;
25503;SDS011;13410;52.114;5.718;2024-03-07T13:48:07;26.50;;;14.23;;
25503;SDS011;13410;52.114;5.718;2024-03-07T13:50:35;20.75;;;13.32;;
25503;SDS011;13410;52.114;5.718;2024-03-07T13:53:03;29.60;;;17.13;;
25503;SDS011;13410;52.114;5.718;2024-03-07T13:55:36;26.40;;;16.55;;
25503;SDS011;13410;52.114;5.718;2024-03-07T13:58:15;23.80;;;15.63;;
25503;SDS011;13410;52.114;5.718;2024-03-07T14:01:17;24.85;;;14.32;;
25503;SDS011;13410;52.114;5.718;2024-03-07T14:06:35;24.23;;;15.20;;
25503;SDS011;13410;52.114;5.718;2024-03-07T14:29:16;21.50;;;13.30;;
25503;SDS011;13410;52.114;5.718;2024-03-07T14:31:45;21.33;;;13.73;;
25503;SDS011;13410;52.114;5.718;2024-03-07T14:34:23;22.17;;;14.20;;
25503;SDS011;13410;52.114;5.718;2024-03-07T14:39:29;20.63;;;12.80;;
25503;SDS011;13410;52.114;5.718;2024-03-07T14:41:58;21.08;;;12.40;;
25503;SDS011;13410;52.114;5.718;2024-03-07T14:44:26;20.58;;;12.93;;
25503;SDS011;13410;52.114;5.718;2024-03-07T14:46:54;21.45;;;14.18;;
25503;SDS011;13410;52.114;5.718;2024-03-07T14:49:24;22.15;;;13.93;;
25503;SDS011;13410;52.114;5.718;2024-03-07T14:51:50;21.83;;;13.90;;
25503;SDS011;13410;52.114;5.718;2024-03-07T14:54:19;22.83;;;14.65;;
25503;SDS011;13410;52.114;5.718;2024-03-07T14:56:48;40.92;;;20.88;;
25503;SDS011;13410;52.114;5.718;2024-03-07T14:59:14;23.80;;;14.80;;
25503;SDS011;13410;52.114;5.718;2024-03-07T15:01:40;28.80;;;16.05;;